createdAt,value
2017-06-22T00:01:08.659Z,63.30
2017-06-22T00:03:36.159Z,63.30
2017-06-22T00:06:04.468Z,63.50
2017-06-22T00:08:32.727Z,63.60
2017-06-22T00:11:01.000Z,64.70
2017-06-22T00:13:29.298Z,64.70
2017-06-22T00:15:57.569Z,65.00
2017-06-22T00:18:25.824Z,65.00
2017-06-22T00:20:54.116Z,65.00
2017-06-22T00:23:22.417Z,64.80
2017-06-22T00:25:50.681Z,65.00
2017-06-22T00:28:18.944Z,65.60
2017-06-22T00:30:47.253Z,65.20
2017-06-22T00:33:15.531Z,65.00
2017-06-22T00:35:43.813Z,64.80
2017-06-22T00:38:12.090Z,65.30
2017-06-22T00:40:40.405Z,65.20
2017-06-22T00:43:08.669Z,65.50
2017-06-22T00:45:36.929Z,65.20
2017-06-22T00:48:05.212Z,65.40
2017-06-22T00:50:33.475Z,64.90
2017-06-22T00:53:01.761Z,64.80
2017-06-22T00:55:30.034Z,64.30
2017-06-22T00:57:58.316Z,64.70
2017-06-22T01:00:25.815Z,64.70
2017-06-22T01:02:54.115Z,64.40
2017-06-22T01:05:22.392Z,64.30
2017-06-22T01:07:50.649Z,65.60
2017-06-22T01:10:18.944Z,66.20
2017-06-22T01:12:47.205Z,66.60
2017-06-22T01:15:14.732Z,66.60
2017-06-22T01:17:43.016Z,65.60
2017-06-22T01:20:11.283Z,66.10
2017-06-22T01:22:39.575Z,67.00
2017-06-22T01:25:07.863Z,67.10
2017-06-22T01:27:36.131Z,67.00
2017-06-22T01:30:04.435Z,67.10
2017-06-22T01:32:32.693Z,66.90
2017-06-22T01:35:00.988Z,66.80
2017-06-22T01:37:29.254Z,66.70
2017-06-22T01:39:57.554Z,67.30
2017-06-22T01:42:25.826Z,67.50
2017-06-22T01:44:54.142Z,67.10
2017-06-22T01:47:22.445Z,67.20
2017-06-22T01:49:50.712Z,67.40
2017-06-22T01:52:19.008Z,67.10
2017-06-22T01:54:47.279Z,67.20
2017-06-22T01:57:15.541Z,67.70
2017-06-22T01:59:43.836Z,68.30
2017-06-22T02:02:12.104Z,68.60
2017-06-22T02:04:40.396Z,68.60
2017-06-22T02:07:08.823Z,68.70
2017-06-22T02:09:37.113Z,68.80
2017-06-22T02:12:05.382Z,68.90
2017-06-22T02:14:34.034Z,68.90
2017-06-22T02:17:02.305Z,68.90
2017-06-22T02:19:29.831Z,68.90
2017-06-22T02:21:58.105Z,69.20
2017-06-22T02:24:26.431Z,69.40
2017-06-22T02:26:54.690Z,69.40
2017-06-22T02:29:22.960Z,69.70
2017-06-22T02:31:51.267Z,69.50
2017-06-22T02:34:19.528Z,70.40
2017-06-22T02:36:47.819Z,69.30
2017-06-22T02:39:16.075Z,69.50
2017-06-22T02:41:44.368Z,69.30
2017-06-22T02:44:12.626Z,68.80
2017-06-22T02:46:40.928Z,69.60
2017-06-22T02:49:09.199Z,69.80
2017-06-22T02:51:37.467Z,70.10
2017-06-22T02:54:05.764Z,69.60
2017-06-22T02:56:33.265Z,69.60
2017-06-22T02:59:01.555Z,69.80
2017-06-22T03:01:29.822Z,69.70
2017-06-22T03:03:58.122Z,69.70
2017-06-22T03:06:26.387Z,70.30
2017-06-22T03:08:55.076Z,70.90
2017-06-22T03:11:23.372Z,71.20
2017-06-22T03:13:51.680Z,71.40
2017-06-22T03:16:23.264Z,70.70
2017-06-22T03:18:51.558Z,71.20
2017-06-22T03:21:19.852Z,71.30
2017-06-22T03:23:48.116Z,71.30
2017-06-22T03:26:16.418Z,71.30
2017-06-22T03:28:44.678Z,71.50
2017-06-22T03:31:12.975Z,71.40
2017-06-22T03:33:41.235Z,72.30
2017-06-22T03:36:09.520Z,71.60
2017-06-22T03:38:37.784Z,71.30
2017-06-22T03:41:06.936Z,72.10
2017-06-22T03:43:35.563Z,71.60
2017-06-22T03:46:03.834Z,72.00
2017-06-22T03:48:32.128Z,72.20
2017-06-22T03:51:00.389Z,72.10
2017-06-22T03:53:28.676Z,72.20
2017-06-22T03:55:56.957Z,72.40
2017-06-22T03:58:25.246Z,72.80
2017-06-22T04:00:53.521Z,72.80
2017-06-22T04:03:21.829Z,73.00
2017-06-22T04:05:50.096Z,73.10
2017-06-22T04:08:18.365Z,73.40
2017-06-22T04:10:45.903Z,73.40
2017-06-22T04:13:14.173Z,73.30
2017-06-22T04:15:42.468Z,73.90
2017-06-22T04:18:10.726Z,74.70
2017-06-22T04:20:39.032Z,73.20
2017-06-22T04:23:07.291Z,73.50
2017-06-22T04:25:35.588Z,73.90
2017-06-22T04:28:03.886Z,73.70
2017-06-22T04:30:32.153Z,74.00
2017-06-22T04:33:00.440Z,73.50
2017-06-22T04:35:28.745Z,74.40
2017-06-22T04:37:57.014Z,73.60
2017-06-22T04:40:24.547Z,73.60
2017-06-22T04:42:52.816Z,73.90
2017-06-22T04:45:21.127Z,74.10
2017-06-22T04:47:49.395Z,74.10
2017-06-22T04:50:17.663Z,74.80
2017-06-22T04:52:45.973Z,74.80
2017-06-22T04:55:14.245Z,75.00
2017-06-22T04:57:42.506Z,75.30
2017-06-22T05:00:10.811Z,75.50
2017-06-22T05:02:39.093Z,74.70
2017-06-22T05:05:07.354Z,75.40
2017-06-22T05:07:35.670Z,74.90
2017-06-22T05:10:03.936Z,75.10
2017-06-22T05:12:32.240Z,75.00
2017-06-22T05:15:00.500Z,74.50
2017-06-22T05:17:28.799Z,74.50
2017-06-22T05:19:57.105Z,75.00
2017-06-22T05:22:25.372Z,73.60
2017-06-22T05:24:53.669Z,73.40
2017-06-22T05:27:21.956Z,73.60
2017-06-22T05:29:50.256Z,73.10
2017-06-22T05:32:18.517Z,73.30
2017-06-22T05:34:46.808Z,74.10
2017-06-22T05:37:15.104Z,74.10
2017-06-22T05:39:43.368Z,73.40
2017-06-22T05:42:11.677Z,73.50
2017-06-22T05:44:39.960Z,73.00
2017-06-22T05:47:08.274Z,73.10
2017-06-22T05:49:36.535Z,74.40
2017-06-22T05:52:04.800Z,72.40
2017-06-22T05:54:33.323Z,72.60
2017-06-22T05:57:01.625Z,73.50
2017-06-22T05:59:29.887Z,72.80
2017-06-22T06:01:58.179Z,71.50
2017-06-22T06:04:26.452Z,71.40
2017-06-22T06:06:54.739Z,72.40
2017-06-22T06:09:23.043Z,71.30
2017-06-22T06:11:51.313Z,71.40
2017-06-22T06:14:19.596Z,70.70
2017-06-22T06:16:47.883Z,69.40
2017-06-22T06:19:15.387Z,69.30
2017-06-22T06:21:43.689Z,67.90
2017-06-22T06:24:11.948Z,69.30
2017-06-22T06:26:40.264Z,68.70
2017-06-22T06:29:08.532Z,67.10
2017-06-22T06:31:36.801Z,67.20
2017-06-22T06:34:05.124Z,67.70
2017-06-22T06:36:33.391Z,67.00
2017-06-22T06:39:01.693Z,67.10
2017-06-22T06:41:29.969Z,66.60
2017-06-22T06:43:58.261Z,67.00
2017-06-22T06:46:26.561Z,64.70
2017-06-22T06:48:54.835Z,64.60
2017-06-22T06:51:23.149Z,64.10
2017-06-22T06:53:51.425Z,63.90
2017-06-22T06:56:19.691Z,64.10
2017-06-22T06:58:48.011Z,62.60
2017-06-22T07:01:16.284Z,61.60
2017-06-22T07:03:44.553Z,63.60
2017-06-22T07:06:12.857Z,62.80
2017-06-22T07:08:41.132Z,61.00
2017-06-22T07:11:09.424Z,61.80
2017-06-22T07:13:37.682Z,59.90
2017-06-22T07:16:05.980Z,59.40
2017-06-22T07:18:34.251Z,57.60
2017-06-22T07:21:02.558Z,57.10
2017-06-22T07:23:30.819Z,58.30
2017-06-22T07:25:59.080Z,57.20
2017-06-22T07:28:27.424Z,58.60
2017-06-22T07:30:55.680Z,58.30
2017-06-22T07:33:23.945Z,58.10
2017-06-22T07:35:52.268Z,57.40
2017-06-22T07:38:20.543Z,56.50
2017-06-22T07:40:48.087Z,56.50
2017-06-22T07:43:16.364Z,57.00
2017-06-22T07:45:44.672Z,56.60
2017-06-22T07:48:12.942Z,56.50
2017-06-22T07:50:41.216Z,55.00
2017-06-22T07:53:09.528Z,54.70
2017-06-22T07:55:37.808Z,54.00
2017-06-22T07:58:06.117Z,54.00
2017-06-22T08:00:34.436Z,54.90
2017-06-22T08:03:02.701Z,54.70
2017-06-22T08:05:30.977Z,53.70
2017-06-22T08:07:59.280Z,53.50
2017-06-22T08:10:27.585Z,51.30
2017-06-22T08:12:55.905Z,51.00
2017-06-22T08:15:24.176Z,50.80
2017-06-22T08:17:52.468Z,50.90
2017-06-22T08:20:20.779Z,50.30
2017-06-22T08:22:49.048Z,49.60
2017-06-22T08:25:17.351Z,48.70
2017-06-22T08:27:45.642Z,49.40
2017-06-22T08:30:13.206Z,49.40
2017-06-22T08:32:41.479Z,49.70
2017-06-22T08:35:09.742Z,49.40
2017-06-22T08:37:38.032Z,49.00
2017-06-22T08:40:06.303Z,49.60
2017-06-22T08:42:34.605Z,49.50
2017-06-22T08:45:02.873Z,48.00
2017-06-22T08:47:31.185Z,48.70
2017-06-22T08:49:59.461Z,48.70
2017-06-22T08:52:27.737Z,49.10
2017-06-22T08:54:56.041Z,48.90
2017-06-22T08:57:24.308Z,49.10
2017-06-22T08:59:51.836Z,49.00
2017-06-22T09:02:20.114Z,48.70
2017-06-22T09:04:48.426Z,48.60
2017-06-22T09:07:15.935Z,48.60
2017-06-22T09:09:44.212Z,49.10
2017-06-22T09:12:12.500Z,48.50
2017-06-22T09:14:40.768Z,49.10
2017-06-22T09:17:09.070Z,49.00
2017-06-22T09:19:37.344Z,49.80
2017-06-22T09:22:05.671Z,48.30
2017-06-22T09:24:33.935Z,46.80
2017-06-22T09:27:01.450Z,46.70
2017-06-22T09:29:29.750Z,46.00
2017-06-22T09:31:58.016Z,45.40
2017-06-22T09:34:26.306Z,45.50
2017-06-22T09:36:54.579Z,44.80
2017-06-22T09:39:22.880Z,45.60
2017-06-22T09:41:51.221Z,44.30
2017-06-22T09:44:19.489Z,45.20
2017-06-22T09:46:47.771Z,45.20
2017-06-22T09:49:16.067Z,46.00
2017-06-22T09:51:44.344Z,45.60
2017-06-22T09:54:12.686Z,46.20
2017-06-22T09:56:40.955Z,46.00
2017-06-22T09:59:09.275Z,45.80
2017-06-22T10:01:37.547Z,45.80
2017-06-22T10:04:05.818Z,46.10
2017-06-22T10:06:34.127Z,46.10
2017-06-22T10:09:02.397Z,46.50
2017-06-22T10:11:30.701Z,45.10
2017-06-22T10:13:58.970Z,46.80
2017-06-22T10:16:27.270Z,45.30
2017-06-22T10:18:54.770Z,45.30
2017-06-22T10:21:23.071Z,45.20
2017-06-22T10:23:51.351Z,45.40
2017-06-22T10:26:19.625Z,45.30
2017-06-22T10:28:47.931Z,45.20
2017-06-22T10:31:16.208Z,44.60
2017-06-22T10:33:44.485Z,44.40
2017-06-22T10:36:12.779Z,44.00
2017-06-22T10:38:41.068Z,43.70
2017-06-22T10:41:09.327Z,42.90
2017-06-22T10:43:37.624Z,42.10
2017-06-22T10:46:05.894Z,42.60
2017-06-22T10:48:34.192Z,42.10
2017-06-22T10:51:02.464Z,41.60
2017-06-22T10:53:30.758Z,41.40
2017-06-22T10:55:59.062Z,41.80
2017-06-22T10:58:27.336Z,40.30
2017-06-22T11:00:55.593Z,41.10
2017-06-22T11:03:23.878Z,40.10
2017-06-22T11:05:52.150Z,39.90
2017-06-22T11:08:20.460Z,40.20
2017-06-22T11:10:48.729Z,40.50
2017-06-22T11:13:17.029Z,40.40
2017-06-22T11:15:45.309Z,39.20
2017-06-22T11:18:13.604Z,39.80
2017-06-22T11:20:41.877Z,40.40
2017-06-22T11:23:10.155Z,39.40
2017-06-22T11:25:38.460Z,39.70
2017-06-22T11:28:06.735Z,38.90
2017-06-22T11:30:35.035Z,40.10
2017-06-22T11:33:03.313Z,39.60
2017-06-22T11:35:31.614Z,39.10
2017-06-22T11:37:59.892Z,38.70
2017-06-22T11:40:28.172Z,40.20
2017-06-22T11:42:56.489Z,38.60
2017-06-22T11:45:24.777Z,39.30
2017-06-22T11:47:53.050Z,38.50
2017-06-22T11:50:21.348Z,38.20
2017-06-22T11:52:49.620Z,38.10
2017-06-22T11:55:17.918Z,38.50
2017-06-22T11:57:46.231Z,37.60
2017-06-22T12:00:14.502Z,37.70
2017-06-22T12:02:42.811Z,37.30
2017-06-22T12:05:11.108Z,37.40
2017-06-22T12:07:39.387Z,36.10
2017-06-22T12:10:07.686Z,37.40
2017-06-22T12:12:35.961Z,36.90
2017-06-22T12:15:04.272Z,36.70
2017-06-22T12:17:32.549Z,36.20
2017-06-22T12:20:00.822Z,36.40
2017-06-22T12:22:29.134Z,36.70
2017-06-22T12:24:57.410Z,36.50
2017-06-22T12:27:25.691Z,37.20
2017-06-22T12:29:54.003Z,36.70
2017-06-22T12:32:22.271Z,37.00
2017-06-22T12:34:50.565Z,37.30
2017-06-22T12:37:18.842Z,37.50
2017-06-22T12:39:47.136Z,36.70
2017-06-22T12:42:15.407Z,36.60
2017-06-22T12:44:43.719Z,36.60
2017-06-22T12:47:11.992Z,36.30
2017-06-22T12:49:40.264Z,37.20
2017-06-22T12:52:08.559Z,35.40
2017-06-22T12:54:36.824Z,36.40
2017-06-22T12:57:05.130Z,35.80
2017-06-22T12:59:33.404Z,36.60
2017-06-22T13:02:01.711Z,35.60
2017-06-22T13:04:29.981Z,35.50
2017-06-22T13:06:58.244Z,35.60
2017-06-22T13:09:26.530Z,34.80
2017-06-22T13:11:54.795Z,35.10
2017-06-22T13:14:23.101Z,35.00
2017-06-22T13:16:51.364Z,34.70
2017-06-22T13:19:19.630Z,34.60
2017-06-22T13:21:47.936Z,35.20
2017-06-22T13:24:16.204Z,34.80
2017-06-22T13:26:44.482Z,34.40
2017-06-22T13:29:12.784Z,35.20
2017-06-22T13:31:41.069Z,33.90
2017-06-22T13:34:09.359Z,34.20
2017-06-22T13:36:37.638Z,34.30
2017-06-22T13:39:05.944Z,32.80
2017-06-22T13:41:34.244Z,33.10
2017-06-22T13:44:02.525Z,34.30
2017-06-22T13:46:30.834Z,32.60
2017-06-22T13:48:59.105Z,34.50
2017-06-22T13:51:27.392Z,32.90
2017-06-22T13:53:55.654Z,34.10
2017-06-22T13:56:23.970Z,33.70
2017-06-22T13:58:52.239Z,32.80
2017-06-22T14:01:20.520Z,32.60
2017-06-22T14:03:48.814Z,33.20
2017-06-22T14:06:17.080Z,33.40
2017-06-22T14:08:45.388Z,33.70
2017-06-22T14:11:13.660Z,33.70
2017-06-22T14:13:41.922Z,33.70
2017-06-22T14:16:10.228Z,33.10
2017-06-22T14:18:38.492Z,34.70
2017-06-22T14:21:06.799Z,34.90
2017-06-22T14:23:35.072Z,34.20
2017-06-22T14:26:02.613Z,34.20
2017-06-22T14:28:30.883Z,35.00
2017-06-22T14:30:59.148Z,34.40
2017-06-22T14:33:27.453Z,35.50
2017-06-22T14:35:55.712Z,35.40
2017-06-22T14:38:23.256Z,35.40
2017-06-22T14:40:51.522Z,34.80
2017-06-22T14:43:19.784Z,33.70
2017-06-22T14:45:48.097Z,33.90
2017-06-22T14:48:16.359Z,34.30
2017-06-22T14:50:45.033Z,34.80
2017-06-22T14:53:13.306Z,35.70
2017-06-22T14:55:41.567Z,35.50
2017-06-22T14:58:09.863Z,34.70
2017-06-22T15:00:38.136Z,35.40
2017-06-22T15:03:06.428Z,35.90
2017-06-22T15:05:34.700Z,35.50
2017-06-22T15:08:03.009Z,35.30
2017-06-22T15:10:31.289Z,36.60
2017-06-22T15:12:59.557Z,36.20
2017-06-22T15:15:27.852Z,36.00
2017-06-22T15:17:56.168Z,36.80
2017-06-22T15:20:24.484Z,36.00
2017-06-22T15:22:52.758Z,36.10
2017-06-22T15:25:21.032Z,36.60
2017-06-22T15:27:49.332Z,37.30
2017-06-22T15:30:16.836Z,37.30
2017-06-22T15:32:45.130Z,35.90
2017-06-22T15:35:13.407Z,35.90
2017-06-22T15:37:41.721Z,35.60
2017-06-22T15:40:09.981Z,35.50
2017-06-22T15:42:39.192Z,36.60
2017-06-22T15:45:07.495Z,35.60
2017-06-22T15:47:35.766Z,35.10
2017-06-22T15:50:04.062Z,34.50
2017-06-22T15:52:32.327Z,34.50
2017-06-22T15:55:00.636Z,35.70
2017-06-22T15:57:28.902Z,35.20
2017-06-22T15:59:57.175Z,34.80
2017-06-22T16:02:25.475Z,35.10
2017-06-22T16:04:53.745Z,34.90
2017-06-22T16:07:22.049Z,35.20
2017-06-22T16:09:50.326Z,35.60
2017-06-22T16:12:18.589Z,35.80
2017-06-22T16:14:46.887Z,36.00
2017-06-22T16:17:15.184Z,35.40
2017-06-22T16:19:43.450Z,36.40
2017-06-22T16:22:11.754Z,36.20
2017-06-22T16:24:40.034Z,36.60
2017-06-22T16:27:08.339Z,36.70
2017-06-22T16:29:36.610Z,37.10
2017-06-22T16:32:04.919Z,37.20
2017-06-22T16:34:33.213Z,36.90
2017-06-22T16:37:01.484Z,36.50
2017-06-22T16:39:29.791Z,37.40
2017-06-22T16:41:58.062Z,37.90
2017-06-22T16:44:26.364Z,37.30
2017-06-22T16:46:54.627Z,37.70
2017-06-22T16:49:22.940Z,37.60
2017-06-22T16:51:51.204Z,39.00
2017-06-22T16:54:19.503Z,39.70
2017-06-22T16:56:47.764Z,39.70
2017-06-22T16:59:16.051Z,39.80
2017-06-22T17:01:44.357Z,39.90
2017-06-22T17:04:11.855Z,39.90
2017-06-22T17:06:40.151Z,40.40
2017-06-22T17:09:08.416Z,41.60
2017-06-22T17:11:36.675Z,42.20
2017-06-22T17:14:04.984Z,48.20
2017-06-22T17:16:33.247Z,49.40
2017-06-22T17:19:01.552Z,52.40
2017-06-22T17:21:29.857Z,53.00
2017-06-22T17:23:58.128Z,53.50
2017-06-22T17:26:26.439Z,53.10
2017-06-22T17:28:54.712Z,53.50
2017-06-22T17:31:23.054Z,52.20
2017-06-22T17:33:51.357Z,53.00
2017-06-22T17:36:19.639Z,52.80
2017-06-22T17:38:47.936Z,53.00
2017-06-22T17:41:16.210Z,52.50
2017-06-22T17:43:44.507Z,51.30
2017-06-22T17:46:12.772Z,50.80
2017-06-22T17:48:42.019Z,51.30
2017-06-22T17:51:10.291Z,50.80
2017-06-22T17:53:38.579Z,51.10
2017-06-22T17:56:06.836Z,51.40
2017-06-22T17:58:35.134Z,51.10
2017-06-22T18:01:03.448Z,51.60
2017-06-22T18:03:31.722Z,54.90
2017-06-22T18:05:59.982Z,59.50
2017-06-22T18:08:28.268Z,62.60
2017-06-22T18:10:56.533Z,68.20
2017-06-22T18:13:24.833Z,64.80
2017-06-22T18:15:53.145Z,68.30
2017-06-22T18:18:21.411Z,67.20
2017-06-22T18:20:49.680Z,67.90
2017-06-22T18:23:17.986Z,69.80
2017-06-22T18:25:46.275Z,67.40
2017-06-22T18:28:14.537Z,68.30
2017-06-22T18:30:42.852Z,66.00
2017-06-22T18:33:11.125Z,66.20
2017-06-22T18:35:39.423Z,67.50
2017-06-22T18:38:07.782Z,67.60
2017-06-22T18:40:36.051Z,68.90
2017-06-22T18:43:04.324Z,69.30
2017-06-22T18:45:32.622Z,68.30
2017-06-22T18:48:00.885Z,68.10
2017-06-22T18:50:29.185Z,69.50
2017-06-22T18:52:57.455Z,69.30
2017-06-22T18:55:25.774Z,68.90
2017-06-22T18:57:54.046Z,69.60
2017-06-22T19:00:22.328Z,70.20
2017-06-22T19:02:50.629Z,68.90
2017-06-22T19:05:18.902Z,68.60
2017-06-22T19:07:47.223Z,68.30
2017-06-22T19:10:15.506Z,68.50
2017-06-22T19:12:43.816Z,66.90
2017-06-22T19:15:12.089Z,66.90
2017-06-22T19:17:40.375Z,66.20
2017-06-22T19:20:08.697Z,65.20
2017-06-22T19:22:36.967Z,65.10
2017-06-22T19:25:05.227Z,64.30
2017-06-22T19:27:33.544Z,63.50
2017-06-22T19:30:01.875Z,64.20
2017-06-22T19:32:30.152Z,63.20
2017-06-22T19:34:58.420Z,64.60
2017-06-22T19:37:26.737Z,62.50
2017-06-22T19:39:55.040Z,61.80
2017-06-22T19:42:23.311Z,61.90
2017-06-22T19:44:51.668Z,61.40
2017-06-22T19:47:19.940Z,61.00
2017-06-22T19:49:48.243Z,61.30
2017-06-22T19:52:16.530Z,61.60
2017-06-22T19:54:44.840Z,63.20
2017-06-22T19:57:13.115Z,64.30
2017-06-22T19:59:41.462Z,62.60
2017-06-22T20:02:09.752Z,62.90
2017-06-22T20:04:38.066Z,63.30
2017-06-22T20:07:06.334Z,62.80
2017-06-22T20:09:34.611Z,64.40
2017-06-22T20:12:02.916Z,62.60
2017-06-22T20:14:31.236Z,63.70
2017-06-22T20:16:59.510Z,64.00
2017-06-22T20:19:27.780Z,62.80
2017-06-22T20:21:56.092Z,64.20
2017-06-22T20:24:24.361Z,63.60
2017-06-22T20:26:52.623Z,63.60
2017-06-22T20:29:20.929Z,64.00
2017-06-22T20:31:49.227Z,65.10
2017-06-22T20:34:17.512Z,64.10
2017-06-22T20:36:45.775Z,64.10
2017-06-22T20:39:14.095Z,64.20
2017-06-22T20:41:42.469Z,65.40
2017-06-22T20:44:10.771Z,64.70
2017-06-22T20:46:39.090Z,64.80
2017-06-22T20:49:07.356Z,63.90
2017-06-22T20:51:35.615Z,61.60
2017-06-22T20:54:03.933Z,63.70
2017-06-22T20:56:32.210Z,64.20
2017-06-22T20:59:00.483Z,61.50
2017-06-22T21:01:28.789Z,62.00
2017-06-22T21:03:57.057Z,63.60
2017-06-22T21:06:25.366Z,62.20
2017-06-22T21:08:53.704Z,61.20
2017-06-22T21:11:21.963Z,61.70
2017-06-22T21:13:50.281Z,60.70
2017-06-22T21:16:18.551Z,61.70
2017-06-22T21:18:46.824Z,60.20
2017-06-22T21:21:15.128Z,63.50
2017-06-22T21:23:43.399Z,60.90
2017-06-22T21:26:11.696Z,61.30
2017-06-22T21:28:39.963Z,61.90
2017-06-22T21:31:08.270Z,61.20
2017-06-22T21:33:36.543Z,61.10
2017-06-22T21:36:04.847Z,63.00
2017-06-22T21:38:33.143Z,60.80
2017-06-22T21:41:01.408Z,60.80
2017-06-22T21:43:29.709Z,60.90
2017-06-22T21:45:57.996Z,61.00
2017-06-22T21:48:26.263Z,61.10
2017-06-22T21:50:54.566Z,62.00
2017-06-22T21:53:22.888Z,62.80
2017-06-22T21:55:51.160Z,62.70
2017-06-22T21:58:19.450Z,62.80
2017-06-22T22:00:47.745Z,62.60
2017-06-22T22:03:16.022Z,63.70
2017-06-22T22:05:44.325Z,63.20
2017-06-22T22:08:12.583Z,63.90
2017-06-22T22:10:40.879Z,64.40
2017-06-22T22:13:09.143Z,65.40
2017-06-22T22:15:37.429Z,64.30
2017-06-22T22:18:05.690Z,63.50
2017-06-22T22:20:33.999Z,63.30
2017-06-22T22:23:02.317Z,64.00
2017-06-22T22:25:29.832Z,63.90
2017-06-22T22:27:58.128Z,65.40
2017-06-22T22:30:26.401Z,64.10
2017-06-22T22:32:54.705Z,65.50
2017-06-22T22:35:22.212Z,65.40
2017-06-22T22:37:50.525Z,64.60
2017-06-22T22:40:18.793Z,66.10
2017-06-22T22:42:47.132Z,66.50
2017-06-22T22:45:15.406Z,66.90
2017-06-22T22:47:43.678Z,64.70
2017-06-22T22:50:11.976Z,64.80
2017-06-22T22:52:40.251Z,65.20
2017-06-22T22:55:08.557Z,66.20
2017-06-22T22:57:36.830Z,66.30
2017-06-22T23:00:05.163Z,67.80
2017-06-22T23:02:33.447Z,67.00
2017-06-22T23:05:01.714Z,68.10
2017-06-22T23:07:30.008Z,67.50
2017-06-22T23:09:58.276Z,68.30
2017-06-22T23:12:26.573Z,68.00
2017-06-22T23:14:54.840Z,66.60
2017-06-22T23:17:23.153Z,66.20
2017-06-22T23:19:51.424Z,66.30
2017-06-22T23:22:19.736Z,67.30
2017-06-22T23:24:47.996Z,66.40
2017-06-22T23:27:16.271Z,65.60
2017-06-22T23:29:44.584Z,66.10
2017-06-22T23:32:12.847Z,65.90
2017-06-22T23:34:41.158Z,66.60
2017-06-22T23:37:09.423Z,65.50
2017-06-22T23:39:37.732Z,65.90
2017-06-22T23:42:05.995Z,67.00
2017-06-22T23:44:34.294Z,67.10
2017-06-22T23:47:02.562Z,67.40
2017-06-22T23:49:30.878Z,67.90
2017-06-22T23:51:59.141Z,67.90
2017-06-22T23:54:27.404Z,68.10
2017-06-22T23:56:55.703Z,67.40
2017-06-22T23:59:23.970Z,67.80
